createdAt,value
2023-01-22T00:00:36.940Z,100
2023-01-22T00:01:36.944Z,100
2023-01-22T00:02:37.013Z,100
2023-01-22T00:03:37.048Z,100
2023-01-22T00:04:36.940Z,100
2023-01-22T00:05:36.942Z,100
2023-01-22T00:06:36.947Z,100
2023-01-22T00:07:36.948Z,100
2023-01-22T00:08:36.945Z,100
2023-01-22T00:09:36.942Z,100
2023-01-22T00:10:37.006Z,100
2023-01-22T00:11:36.933Z,100
2023-01-22T00:12:36.939Z,100
2023-01-22T00:13:37.039Z,100
2023-01-22T00:32:18.312Z,100
2023-01-22T00:34:46.367Z,100
2023-01-22T00:38:28.742Z,100
2023-01-22T00:40:20.353Z,100
2023-01-22T00:41:18.948Z,100
2023-01-22T00:41:25.725Z,100
2023-01-22T00:41:40.068Z,100
2023-01-22T01:25:36.946Z,99.3
2023-01-22T01:26:36.961Z,99.5
2023-01-22T01:27:37.068Z,99.9
2023-01-22T01:28:36.957Z,99.8
2023-01-22T01:29:36.965Z,99.8
2023-01-22T01:30:36.985Z,99.9
2023-01-22T01:31:37.131Z,99.7
2023-01-22T01:32:36.957Z,99.8
2023-01-22T01:33:36.949Z,100
2023-01-22T01:34:36.944Z,100
2023-01-22T01:35:36.951Z,99.2
2023-01-22T01:36:52.519Z,99.5
2023-01-22T01:37:36.955Z,99.3
2023-01-22T01:38:36.960Z,98.8
2023-01-22T01:39:36.953Z,98.4
2023-01-22T01:40:37.048Z,98.4
2023-01-22T01:59:18.922Z,99
2023-01-22T02:47:36.976Z,96.3
2023-01-22T02:48:36.985Z,96.7
2023-01-22T02:49:36.950Z,96.6
2023-01-22T02:50:36.947Z,96.6
2023-01-22T02:51:36.985Z,96
2023-01-22T02:52:36.962Z,96.1
2023-01-22T02:53:36.949Z,96.7
2023-01-22T02:54:36.968Z,96.8
2023-01-22T02:55:36.953Z,97.2
2023-01-22T02:56:36.957Z,97.5
2023-01-22T02:57:36.956Z,95.1
2023-01-22T02:58:36.953Z,94.9
2023-01-22T03:00:36.959Z,96.3
2023-01-22T03:01:36.953Z,96.7
2023-01-22T03:02:37.007Z,96.8
2023-01-22T03:03:37.031Z,97.1
2023-01-22T03:22:18.135Z,99
2023-01-22T03:24:46.380Z,99.3
2023-01-22T03:28:28.437Z,99.6
2023-01-22T04:13:36.968Z,100
2023-01-22T04:14:36.961Z,100
2023-01-22T04:15:37.024Z,100
2023-01-22T04:16:37.136Z,100
2023-01-22T04:17:36.999Z,100
2023-01-22T04:18:36.960Z,100
2023-01-22T04:19:36.964Z,100
2023-01-22T04:21:36.965Z,100
2023-01-22T04:22:36.964Z,100
2023-01-22T04:23:36.967Z,100
2023-01-22T04:24:36.972Z,100
2023-01-22T04:25:36.972Z,100
2023-01-22T04:26:36.974Z,100
2023-01-22T04:27:36.967Z,100
2023-01-22T04:28:36.982Z,100
2023-01-22T04:44:45.291Z,100
2023-01-22T04:48:18.147Z,100
2023-01-22T04:50:46.649Z,100
2023-01-22T05:39:36.978Z,100
2023-01-22T05:40:36.977Z,100
2023-01-22T05:41:36.975Z,100
2023-01-22T05:42:36.971Z,100
2023-01-22T05:43:36.987Z,100
2023-01-22T05:44:36.971Z,100
2023-01-22T05:45:36.972Z,100
2023-01-22T05:46:36.972Z,100
2023-01-22T05:47:36.971Z,100
2023-01-22T05:48:37.113Z,100
2023-01-22T05:49:36.968Z,100
2023-01-22T05:50:36.980Z,100
2023-01-22T05:52:36.972Z,100
2023-01-22T05:53:36.974Z,100
2023-01-22T05:54:37.070Z,100
2023-01-22T06:13:18.147Z,100
2023-01-22T06:14:46.163Z,100
2023-01-22T06:34:39.925Z,100
2023-01-22T07:01:37.047Z,100
2023-01-22T07:02:37.043Z,100
2023-01-22T07:03:37.043Z,100
2023-01-22T07:04:36.979Z,100
2023-01-22T07:05:37.110Z,100
2023-01-22T07:06:36.980Z,100
2023-01-22T07:07:36.989Z,100
2023-01-22T07:08:36.986Z,100
2023-01-22T07:09:36.985Z,100
2023-01-22T07:10:36.985Z,100
2023-01-22T07:11:36.976Z,100
2023-01-22T07:12:36.975Z,100
2023-01-22T07:13:36.980Z,100
2023-01-22T07:14:37.842Z,100
2023-01-22T07:15:36.989Z,100
2023-01-22T07:33:18.094Z,100
2023-01-22T07:35:46.337Z,100
2023-01-22T07:39:28.721Z,100
2023-01-22T07:41:25.880Z,100
2023-01-22T07:46:16.409Z,100
2023-01-22T07:47:30.503Z,100
2023-01-22T07:52:27.391Z,100
2023-01-22T07:57:30.263Z,100
2023-01-22T07:57:37.546Z,100
2023-01-22T07:58:05.882Z,100
2023-01-22T07:58:19.517Z,100
2023-01-22T07:58:26.700Z,100
2023-01-22T07:58:47.598Z,100
2023-01-22T08:39:37.000Z,100
2023-01-22T08:40:38.092Z,100
2023-01-22T08:41:36.993Z,100
2023-01-22T08:42:37.020Z,100
2023-01-22T08:43:36.984Z,100
2023-01-22T08:44:37.043Z,100
2023-01-22T08:45:37.001Z,100
2023-01-22T08:46:36.999Z,100
2023-01-22T08:47:36.994Z,100
2023-01-22T08:48:36.988Z,100
2023-01-22T08:49:36.981Z,100
2023-01-22T08:50:36.997Z,100
2023-01-22T08:51:36.999Z,100
2023-01-22T08:52:36.998Z,100
2023-01-22T08:54:37.925Z,100
2023-01-22T09:13:18.167Z,100
2023-01-22T09:15:46.413Z,100
2023-01-22T09:19:28.793Z,100
2023-01-22T09:26:16.471Z,100
2023-01-22T09:36:46.942Z,100
2023-01-22T09:38:27.939Z,100
2023-01-22T09:39:18.234Z,100
2023-01-22T09:39:39.226Z,100
2023-01-22T10:19:37.004Z,100
2023-01-22T10:20:37.011Z,100
2023-01-22T10:21:36.994Z,100
2023-01-22T10:22:36.999Z,100
2023-01-22T10:23:37.003Z,100
2023-01-22T10:24:37.122Z,100
2023-01-22T10:25:37.023Z,100
2023-01-22T10:26:36.996Z,100
2023-01-22T10:27:37.003Z,100
2023-01-22T10:28:37.003Z,100
2023-01-22T10:29:37.054Z,100
2023-01-22T10:30:37.213Z,100
2023-01-22T10:31:37.199Z,100
2023-01-22T10:32:36.995Z,100
2023-01-22T10:33:37.004Z,100
2023-01-22T10:34:37.055Z,100
2023-01-22T10:53:18.170Z,100
2023-01-22T10:55:46.448Z,100
2023-01-22T10:59:28.797Z,100
2023-01-22T11:01:20.033Z,100
2023-01-22T11:03:46.624Z,100
2023-01-22T11:48:37.023Z,100
2023-01-22T11:49:37.111Z,100
2023-01-22T11:50:37.017Z,100
2023-01-22T11:51:37.030Z,100
2023-01-22T11:52:37.010Z,100
2023-01-22T11:53:37.002Z,100
2023-01-22T11:54:37.008Z,100
2023-01-22T11:55:37.018Z,100
2023-01-22T11:56:37.127Z,100
2023-01-22T11:57:37.087Z,100
2023-01-22T11:58:37.023Z,100
2023-01-22T11:59:37.021Z,100
2023-01-22T12:00:37.023Z,100
2023-01-22T12:01:37.011Z,100
2023-01-22T12:02:37.051Z,100
2023-01-22T12:03:37.181Z,100
2023-01-22T12:17:47.028Z,100
2023-01-22T12:21:18.184Z,100
2023-01-22T12:22:46.491Z,100
2023-01-22T13:09:37.037Z,100
2023-01-22T13:10:37.036Z,100
2023-01-22T13:11:37.016Z,100
2023-01-22T13:12:37.031Z,100
2023-01-22T13:13:37.138Z,100
2023-01-22T13:14:37.023Z,100
2023-01-22T13:15:37.002Z,100
2023-01-22T13:16:37.028Z,100
2023-01-22T13:17:37.166Z,100
2023-01-22T13:18:37.010Z,100
2023-01-22T13:19:37.011Z,100
2023-01-22T13:20:37.032Z,100
2023-01-22T13:21:37.021Z,100
2023-01-22T13:22:37.013Z,100
2023-01-22T13:23:37.021Z,100
2023-01-22T13:24:37.005Z,100
2023-01-22T14:22:37.028Z,100
2023-01-22T14:23:37.040Z,100
2023-01-22T14:24:37.024Z,100
2023-01-22T14:25:37.023Z,100
2023-01-22T14:26:37.049Z,100
2023-01-22T14:27:37.020Z,100
2023-01-22T14:29:37.036Z,100
2023-01-22T14:30:37.219Z,100
2023-01-22T14:31:37.137Z,100
2023-01-22T14:32:37.022Z,100
2023-01-22T14:33:37.066Z,100
2023-01-22T14:34:37.040Z,100
2023-01-22T14:35:37.026Z,100
2023-01-22T14:36:37.028Z,100
2023-01-22T14:37:37.018Z,100
2023-01-22T15:28:37.034Z,100
2023-01-22T15:29:37.023Z,100
2023-01-22T15:30:37.089Z,100
2023-01-22T15:31:37.124Z,100
2023-01-22T15:32:37.155Z,100
2023-01-22T15:33:37.042Z,100
2023-01-22T15:34:37.032Z,100
2023-01-22T15:35:37.032Z,100
2023-01-22T15:36:37.036Z,100
2023-01-22T15:37:37.030Z,100
2023-01-22T15:38:37.041Z,100
2023-01-22T15:39:37.034Z,100
2023-01-22T15:40:37.028Z,100
2023-01-22T15:41:37.058Z,100
2023-01-22T15:42:37.047Z,100
2023-01-22T15:49:47.016Z,100
2023-01-22T16:01:38.740Z,100
2023-01-22T16:02:36.368Z,100
2023-01-22T16:49:37.159Z,100
2023-01-22T16:50:37.031Z,100
2023-01-22T16:51:37.037Z,100
2023-01-22T16:52:37.031Z,100
2023-01-22T16:53:37.046Z,100
2023-01-22T16:54:37.066Z,100
2023-01-22T16:55:37.089Z,100
2023-01-22T16:56:37.040Z,100
2023-01-22T16:57:37.033Z,100
2023-01-22T16:58:37.092Z,100
2023-01-22T16:59:37.047Z,100
2023-01-22T17:00:37.039Z,100
2023-01-22T17:01:39.496Z,100
2023-01-22T17:02:37.137Z,100
2023-01-22T17:03:37.059Z,100
2023-01-22T17:04:37.120Z,100
2023-01-22T17:15:46.186Z,100
2023-01-22T17:22:18.219Z,100
2023-01-22T17:24:46.472Z,100
2023-01-22T17:28:28.528Z,100
2023-01-22T17:28:49.036Z,100
2023-01-22T17:28:55.835Z,100
2023-01-22T17:40:29.625Z,100
2023-01-22T18:14:37.056Z,100
2023-01-22T18:15:37.119Z,100
2023-01-22T18:16:37.061Z,100
2023-01-22T18:17:37.050Z,100
2023-01-22T18:18:37.071Z,100
2023-01-22T18:19:37.049Z,100
2023-01-22T18:20:37.050Z,100
2023-01-22T18:21:37.156Z,100
2023-01-22T18:22:37.173Z,100
2023-01-22T18:23:37.047Z,100
2023-01-22T18:24:37.055Z,100
2023-01-22T18:25:37.049Z,100
2023-01-22T18:26:37.091Z,100
2023-01-22T18:27:37.053Z,100
2023-01-22T18:28:37.057Z,100
2023-01-22T18:29:37.061Z,100
2023-01-22T18:48:18.240Z,100
2023-01-22T19:01:29.684Z,100
2023-01-22T19:37:37.072Z,100
2023-01-22T19:38:37.057Z,100
2023-01-22T19:39:37.176Z,100
2023-01-22T19:40:37.057Z,100
2023-01-22T19:41:37.059Z,100
2023-01-22T19:42:37.369Z,100
2023-01-22T19:43:37.093Z,100
2023-01-22T19:44:37.074Z,100
2023-01-22T19:45:37.068Z,100
2023-01-22T19:46:37.205Z,100
2023-01-22T19:47:37.064Z,100
2023-01-22T19:48:37.100Z,100
2023-01-22T19:49:37.054Z,100
2023-01-22T19:50:37.062Z,100
2023-01-22T19:51:37.141Z,100
2023-01-22T20:32:29.436Z,100
2023-01-22T20:49:37.071Z,100
2023-01-22T20:50:37.066Z,100
2023-01-22T20:51:37.085Z,100
2023-01-22T20:52:37.068Z,100
2023-01-22T20:53:37.075Z,100
2023-01-22T20:54:50.007Z,100
2023-01-22T20:55:37.067Z,100
2023-01-22T20:56:37.192Z,100
2023-01-22T20:57:37.068Z,100
2023-01-22T20:58:37.095Z,100
2023-01-22T20:59:37.083Z,100
2023-01-22T21:00:37.157Z,100
2023-01-22T21:01:37.077Z,100
2023-01-22T21:02:37.062Z,100
2023-01-22T21:03:37.075Z,100
2023-01-22T21:04:37.068Z,100
2023-01-22T21:05:37.144Z,100
2023-01-22T21:24:18.241Z,100
2023-01-22T21:26:46.504Z,100
2023-01-22T21:30:28.920Z,100
2023-01-22T21:32:20.046Z,100
2023-01-22T21:35:46.613Z,100
2023-01-22T22:19:37.075Z,100
2023-01-22T22:20:37.073Z,100
2023-01-22T22:21:37.083Z,100
2023-01-22T22:22:37.069Z,100
2023-01-22T22:23:37.083Z,100
2023-01-22T22:24:37.090Z,100
2023-01-22T22:25:37.072Z,100
2023-01-22T22:26:37.083Z,100
2023-01-22T22:27:37.068Z,100
2023-01-22T22:28:37.199Z,100
2023-01-22T22:29:37.087Z,100
2023-01-22T22:30:37.170Z,100
2023-01-22T22:31:37.145Z,100
2023-01-22T22:32:37.073Z,100
2023-01-22T22:33:37.066Z,100
2023-01-22T22:34:37.158Z,100
2023-01-22T22:53:18.248Z,100
2023-01-22T22:55:46.496Z,100
2023-01-22T22:59:28.875Z,100
2023-01-22T23:01:20.077Z,100
2023-01-22T23:04:16.174Z,100
2023-01-22T23:04:38.052Z,100
2023-01-22T23:47:37.101Z,100
2023-01-22T23:48:37.103Z,100
2023-01-22T23:49:37.080Z,100
2023-01-22T23:50:37.182Z,100
2023-01-22T23:51:37.099Z,100
2023-01-22T23:52:37.097Z,100
2023-01-22T23:53:37.089Z,100
2023-01-22T23:54:37.082Z,100
2023-01-22T23:55:37.116Z,100
2023-01-22T23:56:37.110Z,100
2023-01-22T23:57:37.086Z,100
2023-01-22T23:58:37.119Z,100
2023-01-22T23:59:37.089Z,100
